Time;durP1;ratioP1;P1;durP2;ratioP2;P2;SDS_P1;SDS_P2;PMS_P1;PMS_P2;Temp;Humidity;BMP_temperature;BMP_pressure;BME280_temperature;BME280_humidity;BME280_pressure;Samples;Min_cycle;Max_cycle;Signal;HPM_P1;HPM_P2
2023/06/13 00:00:45;;;;;;;6.00;3.78;;;;;;;25.92;34.20;101332.91;5020181;28;20476;-56
2023/06/13 00:03:13;;;;;;;6.28;3.78;;;;;;;25.91;34.17;101343.00;5021212;28;20029;-56
2023/06/13 00:05:45;;;;;;;7.38;4.38;;;;;;;25.90;34.00;101337.69;5021563;28;20034;-56
2023/06/13 00:08:17;;;;;;;5.88;3.83;;;;;;;25.89;34.30;101341.44;5025593;28;20040;-56
2023/06/13 00:10:44;;;;;;;4.85;3.70;;;;;;;25.89;34.14;101338.72;5024228;28;20060;-56
2023/06/13 00:13:10;;;;;;;5.03;3.70;;;;;;;25.88;33.94;101331.56;5023134;28;20026;-56
2023/06/13 00:15:35;;;;;;;3.95;3.47;;;;;;;25.87;34.00;101338.88;5021906;28;20034;-56
2023/06/13 00:18:01;;;;;;;5.90;3.95;;;;;;;25.87;34.03;101327.13;5022371;28;20033;-55
2023/06/13 00:20:26;;;;;;;5.40;3.35;;;;;;;25.87;34.06;101338.88;5020973;28;20032;-56
2023/06/13 00:22:52;;;;;;;4.10;3.70;;;;;;;25.86;34.10;101337.22;5020359;28;20364;-56
2023/06/13 00:25:17;;;;;;;4.72;4.07;;;;;;;25.86;34.04;101333.66;5020865;28;20033;-56
2023/06/13 00:27:42;;;;;;;4.40;3.97;;;;;;;25.84;34.05;101339.28;5021093;28;20057;-56
2023/06/13 00:30:08;;;;;;;4.93;3.97;;;;;;;25.85;34.33;101331.94;5021247;28;20034;-56
2023/06/13 00:32:33;;;;;;;4.25;3.80;;;;;;;25.83;33.99;101331.28;5018804;28;20033;-56
2023/06/13 00:34:59;;;;;;;7.82;4.10;;;;;;;25.85;33.81;101331.94;5020694;28;20143;-56
2023/06/13 00:37:29;;;;;;;5.80;3.85;;;;;;;25.84;34.02;101333.00;5020534;28;20033;-56
2023/06/13 00:39:54;;;;;;;6.57;3.78;;;;;;;25.82;34.23;101335.91;5019168;28;20029;-57
2023/06/13 00:42:20;;;;;;;5.57;3.50;;;;;;;25.83;33.84;101331.28;5018731;28;20507;-56
2023/06/13 00:44:46;;;;;;;4.18;3.47;;;;;;;25.80;33.91;101332.50;5025639;28;20030;-56
2023/06/13 00:47:13;;;;;;;5.45;3.65;;;;;;;25.79;34.00;101333.53;5017231;28;20037;-57
2023/06/13 00:49:41;;;;;;;7.03;3.55;;;;;;;25.78;34.03;101322.78;5019738;28;20048;-56
2023/06/13 00:52:08;;;;;;;5.28;3.85;;;;;;;25.78;34.20;101318.22;5020461;28;20120;-56
2023/06/13 00:54:37;;;;;;;6.85;3.80;;;;;;;25.79;34.14;101327.22;5018268;28;20049;-56
2023/06/13 00:57:07;;;;;;;5.55;3.95;;;;;;;25.76;33.99;101323.00;5020326;28;20530;-56
2023/06/13 00:59:33;;;;;;;4.10;3.70;;;;;;;25.75;34.16;101321.31;5017057;28;20034;-57
2023/06/13 01:01:59;;;;;;;4.22;3.70;;;;;;;25.75;34.37;101324.03;5019929;28;20038;-56
2023/06/13 01:04:27;;;;;;;4.68;4.28;;;;;;;25.73;34.15;101324.22;5021562;28;20079;-56
2023/06/13 01:06:52;;;;;;;6.10;3.70;;;;;;;25.75;34.20;101326.75;5017908;28;20541;-57
2023/06/13 01:09:18;;;;;;;6.22;3.83;;;;;;;25.74;33.93;101322.31;5017366;28;20025;-57
2023/06/13 01:12:51;;;;;;;5.97;4.05;;;;;;;25.79;34.61;101319.88;5019031;28;20025;-57
2023/06/13 01:15:19;;;;;;;5.57;3.42;;;;;;;25.73;34.21;101310.56;4991140;28;20528;-56
2023/06/13 01:17:57;;;;;;;6.57;3.80;;;;;;;25.71;34.10;101318.09;5020113;28;20379;-57
2023/06/13 01:20:27;;;;;;;4.85;3.83;;;;;;;25.70;33.82;101327.34;5019558;28;20030;-56
2023/06/13 01:23:07;;;;;;;6.13;3.83;;;;;;;25.70;34.29;101321.00;5020713;28;20447;-56
2023/06/13 01:26:08;;;;;;;5.32;4.18;;;;;;;25.70;34.27;101327.34;5021384;28;20351;-56
2023/06/13 01:28:36;;;;;;;5.35;4.00;;;;;;;25.67;34.25;101318.66;5012767;28;20121;-57
2023/06/13 01:31:05;;;;;;;9.50;4.13;;;;;;;25.66;34.40;101320.53;5017227;28;20046;-56
2023/06/13 01:33:30;;;;;;;5.30;4.25;;;;;;;25.64;34.12;101316.31;5020811;28;20036;-57
2023/06/13 01:35:56;;;;;;;4.20;3.78;;;;;;;25.63;34.29;101323.66;5019355;28;20037;-57
2023/06/13 01:38:21;;;;;;;5.63;3.95;;;;;;;25.62;34.64;101330.13;5019095;28;20026;-56
2023/06/13 01:40:48;;;;;;;4.38;3.75;;;;;;;25.61;34.24;101323.00;5022656;28;20033;-56
2023/06/13 01:43:14;;;;;;;6.35;4.00;;;;;;;25.61;34.48;101319.38;5017760;28;20025;-56
2023/06/13 01:45:40;;;;;;;4.15;3.75;;;;;;;25.59;34.52;101324.19;5021165;28;20034;-57
2023/06/13 01:48:24;;;;;;;7.82;3.80;;;;;;;25.62;34.47;101323.81;5020890;28;20036;-56
2023/06/13 01:50:58;;;;;;;6.13;3.78;;;;;;;25.58;34.58;101323.34;5018343;28;20108;-57
2023/06/13 01:53:39;;;;;;;5.82;3.88;;;;;;;25.60;34.53;101313.09;5020429;28;20033;-56
2023/06/13 01:56:09;;;;;;;5.88;3.88;;;;;;;25.55;34.42;101310.06;5024324;28;20050;-57
2023/06/13 01:58:37;;;;;;;5.97;4.13;;;;;;;25.55;34.19;101315.53;5022155;28;20095;-56
2023/06/13 02:01:05;;;;;;;4.20;3.53;;;;;;;25.54;34.51;101308.41;5017430;28;20048;-57
2023/06/13 02:03:32;;;;;;;5.78;3.90;;;;;;;25.53;34.43;101309.41;5021616;28;20017;-56
2023/06/13 02:05:57;;;;;;;6.07;4.38;;;;;;;25.52;34.51;101313.19;5020741;28;20036;-56
2023/06/13 02:08:22;;;;;;;7.55;3.97;;;;;;;25.53;34.19;101312.13;5029015;28;20038;-56
2023/06/13 02:10:48;;;;;;;3.60;3.30;;;;;;;25.52;34.62;101313.19;5023762;28;20419;-57
2023/06/13 02:13:13;;;;;;;4.75;3.78;;;;;;;25.51;34.68;101306.91;5023818;28;20034;-57
2023/06/13 02:15:39;;;;;;;7.45;4.15;;;;;;;25.49;34.50;101308.97;5023198;28;20040;-57
2023/06/13 02:18:05;;;;;;;6.53;4.40;;;;;;;25.48;34.65;101306.41;5022783;28;20030;-56
2023/06/13 02:20:30;;;;;;;6.60;3.72;;;;;;;25.48;34.94;101311.88;5022666;28;20037;-56
2023/06/13 02:22:57;;;;;;;5.43;3.83;;;;;;;25.47;34.19;101308.28;5020940;28;20037;-57
2023/06/13 02:25:23;;;;;;;7.38;4.50;;;;;;;25.46;34.43;101316.66;5021796;28;20050;-56
2023/06/13 02:27:48;;;;;;;5.00;3.92;;;;;;;25.45;34.01;101317.69;5023228;28;20122;-56
2023/06/13 02:30:13;;;;;;;6.40;3.75;;;;;;;25.44;34.32;101313.28;5021547;28;20053;-56
2023/06/13 02:32:41;;;;;;;5.68;3.97;;;;;;;25.43;34.49;101311.56;5023105;28;20030;-56
2023/06/13 02:35:08;;;;;;;4.32;3.92;;;;;;;25.39;34.74;101311.09;5024027;28;20072;-57
2023/06/13 02:37:33;;;;;;;4.93;4.05;;;;;;;25.39;34.57;101307.53;5023553;28;20045;-57
2023/06/13 02:39:59;;;;;;;6.63;4.13;;;;;;;25.39;34.46;101313.81;5022101;28;20041;-56
2023/06/13 02:42:27;;;;;;;6.63;4.10;;;;;;;25.36;34.86;101315.03;5022113;28;20029;-57
2023/06/13 02:44:52;;;;;;;6.07;4.07;;;;;;;25.36;34.36;101315.03;5023535;28;20121;-57
2023/06/13 02:47:20;;;;;;;7.20;4.10;;;;;;;25.36;34.22;101317.75;5022129;28;20544;-57
2023/06/13 02:49:45;;;;;;;4.40;3.85;;;;;;;25.35;34.63;101318.78;5022988;28;20073;-57
2023/06/13 02:52:11;;;;;;;7.30;3.80;;;;;;;25.33;34.26;101320.84;5023275;28;20080;-57
2023/06/13 02:54:36;;;;;;;6.95;4.13;;;;;;;25.31;34.75;101312.00;5021973;28;20044;-57
2023/06/13 02:57:02;;;;;;;6.88;4.05;;;;;;;25.31;34.51;101316.63;5015728;28;20164;-56
2023/06/13 02:59:27;;;;;;;6.07;4.38;;;;;;;25.31;34.26;101317.47;5023233;28;20041;-56
2023/06/13 03:01:52;;;;;;;5.38;4.00;;;;;;;25.30;34.66;101317.63;5022881;28;20044;-57
2023/06/13 03:04:18;;;;;;;6.40;3.90;;;;;;;25.31;34.91;101319.34;5021551;28;20037;-57
2023/06/13 03:06:44;;;;;;;4.97;3.72;;;;;;;25.28;34.63;101323.25;5028369;28;20029;-56
2023/06/13 03:09:11;;;;;;;4.40;3.58;;;;;;;25.27;34.48;101315.28;5021745;28;20038;-56
2023/06/13 03:11:36;;;;;;;7.13;4.32;;;;;;;25.26;34.23;101314.44;5022805;28;20034;-57
2023/06/13 03:14:02;;;;;;;7.80;3.95;;;;;;;25.26;34.93;101314.44;5022487;28;20108;-56
2023/06/13 03:16:28;;;;;;;5.65;4.38;;;;;;;25.24;35.03;101313.75;5024982;28;20112;-56
2023/06/13 03:18:53;;;;;;;4.70;3.88;;;;;;;25.22;34.94;101313.06;5019375;28;20032;-57
2023/06/13 03:21:20;;;;;;;5.55;3.88;;;;;;;25.22;34.67;101313.06;5019481;28;20479;-56
2023/06/13 03:23:45;;;;;;;6.85;4.60;;;;;;;25.18;34.63;101315.31;5021929;28;20384;-56
2023/06/13 03:26:11;;;;;;;5.75;4.43;;;;;;;25.18;34.72;101307.13;5022088;28;20038;-56
2023/06/13 03:28:36;;;;;;;7.45;4.00;;;;;;;25.18;34.95;101312.59;5021954;28;20455;-57
2023/06/13 03:31:02;;;;;;;4.80;3.72;;;;;;;25.18;34.63;101311.75;5022525;28;20030;-56
2023/06/13 03:33:28;;;;;;;7.30;4.30;;;;;;;25.17;34.98;101307.34;5022684;28;20117;-56
2023/06/13 03:35:53;;;;;;;7.85;4.80;;;;;;;25.16;34.83;101302.91;5020721;28;20041;-57
2023/06/13 03:38:20;;;;;;;5.35;4.22;;;;;;;25.16;34.79;101308.34;5021328;28;20029;-56
2023/06/13 03:40:45;;;;;;;5.18;4.40;;;;;;;25.15;34.90;101306.66;5021765;28;20041;-56
2023/06/13 03:43:11;;;;;;;5.28;4.65;;;;;;;25.14;34.96;101304.97;5021757;28;20030;-57
2023/06/13 03:45:36;;;;;;;8.63;4.47;;;;;;;25.13;34.88;101311.44;5022665;28;20451;-56
2023/06/13 03:48:02;;;;;;;5.68;4.50;;;;;;;25.10;34.98;101296.31;5020365;28;20053;-56
2023/06/13 03:50:27;;;;;;;5.22;4.47;;;;;;;25.09;35.27;101299.22;5021584;28;20124;-56
2023/06/13 03:52:52;;;;;;;5.18;4.30;;;;;;;25.10;34.80;101295.47;5021618;28;20038;-56
2023/06/13 03:55:18;;;;;;;6.00;3.97;;;;;;;25.09;34.79;101299.22;5019794;28;20544;-56
2023/06/13 03:57:44;;;;;;;6.90;4.30;;;;;;;25.06;34.74;101310.50;5018487;28;20100;-56
2023/06/13 04:00:10;;;;;;;4.90;4.38;;;;;;;25.06;34.86;101310.50;5016726;28;20108;-56
2023/06/13 04:02:36;;;;;;;6.75;4.82;;;;;;;25.04;35.10;101301.66;5020870;28;20116;-56
2023/06/13 04:05:02;;;;;;;7.13;5.00;;;;;;;25.04;34.95;101301.66;5020815;28;20445;-57
2023/06/13 04:07:33;;;;;;;5.18;4.00;;;;;;;25.03;35.15;101308.13;5026188;28;20084;-56
2023/06/13 04:10:02;;;;;;;5.63;4.63;;;;;;;25.01;35.17;101311.03;5021820;28;20033;-56
2023/06/13 04:12:28;;;;;;;5.03;4.35;;;;;;;25.02;35.08;101309.13;5019484;28;20033;-56
2023/06/13 04:14:54;;;;;;;6.85;4.50;;;;;;;24.99;35.16;101310.34;5016129;28;20522;-56
2023/06/13 04:17:19;;;;;;;5.72;4.13;;;;;;;25.00;35.37;101309.34;5015938;28;20038;-56
2023/06/13 04:19:45;;;;;;;8.52;4.20;;;;;;;25.00;35.35;101303.91;5019811;28;20029;-57
2023/06/13 04:22:10;;;;;;;7.18;4.18;;;;;;;25.00;35.39;101314.78;5020545;28;20033;-57
2023/06/13 04:24:36;;;;;;;6.78;4.30;;;;;;;24.98;35.33;101317.69;5020829;28;20048;-56
2023/06/13 04:27:03;;;;;;;8.00;4.40;;;;;;;24.97;35.53;101310.53;5021940;28;20037;-57
2023/06/13 04:29:29;;;;;;;4.57;4.18;;;;;;;24.97;35.60;101317.88;5020535;28;20045;-57
2023/06/13 04:31:55;;;;;;;5.38;3.97;;;;;;;24.97;35.20;101326.03;5022877;28;20034;-57
2023/06/13 04:34:23;;;;;;;5.13;4.45;;;;;;;24.95;35.55;101318.03;5020633;28;20427;-56
2023/06/13 04:36:49;;;;;;;5.70;4.20;;;;;;;24.94;35.48;101316.38;5019352;28;20041;-56
2023/06/13 04:39:14;;;;;;;7.32;4.32;;;;;;;24.94;35.22;101324.53;5020374;28;20037;-56
2023/06/13 04:41:43;;;;;;;5.72;4.22;;;;;;;24.94;35.62;101330.00;5021569;28;20037;-56
2023/06/13 04:44:09;;;;;;;9.65;4.50;;;;;;;24.93;35.69;101332.88;5020977;28;20034;-56
2023/06/13 04:46:36;;;;;;;8.80;4.90;;;;;;;24.93;35.48;101327.44;5020681;28;20048;-56
2023/06/13 04:49:02;;;;;;;7.45;4.93;;;;;;;24.92;35.56;101334.78;5016341;28;20030;-56
2023/06/13 04:51:28;;;;;;;8.52;3.80;;;;;;;24.91;35.74;101333.06;5017555;28;20042;-56
2023/06/13 04:53:57;;;;;;;6.28;4.25;;;;;;;24.92;35.78;101328.44;5018445;28;20443;-56
2023/06/13 04:56:26;;;;;;;4.60;3.90;;;;;;;24.89;35.59;101329.66;5020421;28;20482;-56
2023/06/13 04:58:52;;;;;;;5.97;4.18;;;;;;;24.91;35.70;101333.06;5017388;28;20369;-56
2023/06/13 05:01:21;;;;;;;5.47;4.25;;;;;;;24.88;35.53;101330.69;5015873;28;20044;-56
2023/06/13 05:03:51;;;;;;;5.65;4.53;;;;;;;24.89;35.80;101340.56;5017039;28;20034;-57
2023/06/13 05:06:17;;;;;;;6.57;4.57;;;;;;;24.91;35.79;101345.84;5022264;28;20037;-56
2023/06/13 05:08:42;;;;;;;5.93;4.28;;;;;;;24.91;35.95;101343.97;5019721;28;20046;-56
2023/06/13 05:11:08;;;;;;;7.53;4.22;;;;;;;24.92;36.25;101339.34;5014314;28;20041;-56
2023/06/13 05:13:33;;;;;;;6.38;4.40;;;;;;;24.92;36.16;101342.94;5017301;28;20039;-56
2023/06/13 05:15:59;;;;;;;5.22;4.25;;;;;;;24.91;36.09;101340.41;5017586;28;20479;-56
2023/06/13 05:18:29;;;;;;;4.95;4.20;;;;;;;24.90;36.10;101346.84;5018506;28;20044;-56
2023/06/13 05:20:56;;;;;;;8.43;4.38;;;;;;;24.88;36.09;101351.63;5016957;28;20480;-56
2023/06/13 05:23:22;;;;;;;6.88;4.38;;;;;;;24.88;36.28;101344.31;5021442;28;20116;-56
2023/06/13 05:25:48;;;;;;;4.93;4.43;;;;;;;24.88;36.37;101341.59;5021461;28;20511;-55
2023/06/13 05:28:14;;;;;;;8.70;4.72;;;;;;;24.91;36.46;101354.00;5020465;28;20044;-55
2023/06/13 05:30:39;;;;;;;7.50;4.32;;;;;;;24.91;36.44;101349.41;5023930;28;20108;-56
2023/06/13 05:33:05;;;;;;;6.18;4.35;;;;;;;24.90;36.03;101352.31;5022610;28;20030;-55
2023/06/13 05:35:30;;;;;;;9.63;4.97;;;;;;;24.92;35.92;101352.97;5019516;28;20044;-55
2023/06/13 05:37:55;;;;;;;7.88;4.20;;;;;;;24.88;36.09;101349.75;5023512;28;20068;-55
2023/06/13 05:40:21;;;;;;;8.70;4.22;;;;;;;24.87;36.32;101345.34;5023431;28;20121;-56
2023/06/13 05:42:46;;;;;;;9.23;5.10;;;;;;;24.87;36.28;101349.97;5025276;28;20021;-56
2023/06/13 05:45:12;;;;;;;4.60;4.15;;;;;;;24.86;36.30;101351.81;5024274;28;20447;-55
2023/06/13 05:47:37;;;;;;;5.72;4.20;;;;;;;24.88;36.16;101354.38;5021860;28;20114;-55
2023/06/13 05:50:03;;;;;;;7.05;4.10;;;;;;;24.88;35.98;101349.75;5027931;28;20025;-56
2023/06/13 05:52:30;;;;;;;5.25;4.47;;;;;;;24.86;36.01;101349.09;5024809;28;20455;-55
2023/06/13 05:54:55;;;;;;;7.70;4.68;;;;;;;24.85;35.99;101350.13;5024281;28;20061;-55
2023/06/13 05:57:20;;;;;;;5.57;4.50;;;;;;;24.85;36.10;101352.03;5024522;28;20081;-55
2023/06/13 05:59:46;;;;;;;5.30;4.75;;;;;;;24.86;36.30;101351.81;5021260;28;20049;-56
2023/06/13 06:02:13;;;;;;;5.22;4.32;;;;;;;24.84;36.23;101344.84;5023653;28;20037;-56
2023/06/13 06:04:38;;;;;;;8.43;4.47;;;;;;;24.83;36.52;101352.19;5023291;28;20132;-55
2023/06/13 06:07:05;;;;;;;4.80;4.30;;;;;;;24.83;36.27;101352.19;5022389;28;20126;-55
2023/06/13 06:09:31;;;;;;;7.63;4.72;;;;;;;24.82;36.20;101360.53;5026516;28;20053;-56
2023/06/13 06:11:57;;;;;;;8.57;4.93;;;;;;;24.84;36.42;101359.31;5021599;28;20534;-56
2023/06/13 06:14:22;;;;;;;6.05;4.68;;;;;;;24.82;36.69;101353.19;5024014;28;20078;-55
2023/06/13 06:16:49;;;;;;;9.13;4.57;;;;;;;24.83;36.27;101360.38;5024112;28;20388;-55
2023/06/13 06:19:15;;;;;;;8.73;5.10;;;;;;;24.84;36.59;101362.03;5024454;28;20659;-56
2023/06/13 06:21:40;;;;;;;6.10;4.97;;;;;;;24.84;36.35;101355.75;5025072;28;20029;-55
2023/06/13 06:24:06;;;;;;;6.50;4.53;;;;;;;24.84;36.71;101359.31;5023922;28;20384;-55
2023/06/13 06:26:32;;;;;;;6.30;4.28;;;;;;;24.84;36.75;101359.31;5023045;28;20059;-55
2023/06/13 06:28:58;;;;;;;5.70;4.72;;;;;;;24.83;36.67;101356.75;5021661;28;20033;-55
2023/06/13 06:31:24;;;;;;;6.45;5.43;;;;;;;24.83;36.71;101346.75;5021215;28;20436;-55
2023/06/13 06:33:49;;;;;;;6.30;5.03;;;;;;;24.83;36.68;101357.63;5023737;28;20068;-56
2023/06/13 06:36:15;;;;;;;6.65;4.35;;;;;;;24.83;36.63;101352.19;5023835;28;20048;-56
2023/06/13 06:38:42;;;;;;;6.90;5.03;;;;;;;24.82;36.52;101353.19;5022574;28;20045;-56
2023/06/13 06:41:07;;;;;;;7.82;4.85;;;;;;;24.83;36.69;101357.63;5020710;28;20174;-56
2023/06/13 06:43:33;;;;;;;6.60;4.82;;;;;;;24.83;36.58;101360.38;5020971;28;20116;-55
2023/06/13 06:45:58;;;;;;;9.77;4.78;;;;;;;24.83;36.49;101351.31;5029053;28;20476;-56
2023/06/13 06:48:23;;;;;;;5.95;5.32;;;;;;;24.82;36.46;101358.66;5020775;28;20064;-55
2023/06/13 06:50:49;;;;;;;4.97;4.47;;;;;;;24.83;36.69;101352.19;5022950;28;20031;-56
2023/06/13 06:53:14;;;;;;;6.65;4.68;;;;;;;24.83;36.57;101356.75;5023054;28;20025;-55
2023/06/13 06:55:39;;;;;;;5.60;4.32;;;;;;;24.82;36.72;101358.66;5024349;28;20428;-55
2023/06/13 06:58:05;;;;;;;5.00;4.38;;;;;;;24.84;37.06;101353.03;5023253;28;20054;-56
2023/06/13 07:00:30;;;;;;;8.98;5.07;;;;;;;24.83;36.99;101360.38;5019697;28;20048;-56
2023/06/13 07:02:55;;;;;;;6.32;4.63;;;;;;;24.84;37.27;101359.31;5022946;28;20039;-55
2023/06/13 07:05:21;;;;;;;8.35;4.88;;;;;;;24.83;36.77;101351.31;5020485;28;20033;-55
2023/06/13 07:07:46;;;;;;;7.80;4.95;;;;;;;24.83;37.11;101356.75;5029231;28;20030;-56
2023/06/13 07:10:12;;;;;;;7.20;4.63;;;;;;;24.82;36.99;101358.66;5023207;28;20042;-55
2023/06/13 07:12:39;;;;;;;5.90;5.07;;;;;;;24.85;37.39;101354.75;5022676;28;20057;-56
2023/06/13 07:15:04;;;;;;;6.07;4.50;;;;;;;24.84;37.09;101362.03;5022929;28;20036;-55
2023/06/13 07:17:30;;;;;;;6.00;4.93;;;;;;;24.84;37.01;101362.03;5022983;28;20108;-55
2023/06/13 07:19:56;;;;;;;6.28;4.88;;;;;;;24.84;37.41;101355.75;5022494;28;20033;-56
2023/06/13 07:22:21;;;;;;;5.78;4.60;;;;;;;24.85;37.51;101361.03;5020827;28;20372;-55
2023/06/13 07:24:47;;;;;;;6.60;5.15;;;;;;;24.84;37.21;101359.31;5022187;28;20032;-56
2023/06/13 07:27:12;;;;;;;8.38;5.10;;;;;;;24.85;37.34;101371.09;5023459;28;20048;-56
2023/06/13 07:29:37;;;;;;;5.55;5.00;;;;;;;24.84;37.06;101364.75;5021192;28;20029;-56
2023/06/13 07:32:03;;;;;;;7.22;5.10;;;;;;;24.85;37.20;101361.03;5022205;28;20537;-56
2023/06/13 07:34:29;;;;;;;7.47;4.85;;;;;;;24.85;37.87;101363.75;5023388;28;20092;-56
2023/06/13 07:36:54;;;;;;;10.18;4.82;;;;;;;24.85;37.46;101363.75;5021103;28;20033;-56
2023/06/13 07:39:20;;;;;;;9.52;4.80;;;;;;;24.84;37.47;101364.75;5019550;28;20041;-56
2023/06/13 07:41:48;;;;;;;8.10;4.90;;;;;;;24.84;37.74;101367.50;5027196;28;20040;-56
2023/06/13 07:44:14;;;;;;;6.78;5.00;;;;;;;24.85;37.71;101357.47;5023328;28;20499;-56
2023/06/13 07:46:39;;;;;;;6.68;4.75;;;;;;;24.85;37.76;101357.47;5021801;28;20021;-56
2023/06/13 07:49:04;;;;;;;10.80;5.07;;;;;;;24.85;37.93;101361.03;5022437;28;20407;-56
2023/06/13 07:51:30;;;;;;;9.20;4.95;;;;;;;24.86;37.67;101356.41;5023372;28;20084;-55
2023/06/13 07:53:55;;;;;;;7.90;4.80;;;;;;;24.85;38.11;101355.59;5021039;28;20033;-55
2023/06/13 07:56:21;;;;;;;5.63;5.07;;;;;;;24.86;37.80;101356.41;5022447;28;20065;-56
2023/06/13 07:58:47;;;;;;;6.13;4.97;;;;;;;24.86;37.62;101361.88;5020313;28;20476;-56
2023/06/13 08:01:13;;;;;;;5.32;4.82;;;;;;;24.87;37.83;101358.97;5017910;28;20041;-56
2023/06/13 08:03:38;;;;;;;7.35;4.60;;;;;;;24.88;37.67;101355.19;5021299;28;20038;-56
2023/06/13 08:06:03;;;;;;;7.65;4.68;;;;;;;24.88;38.04;101355.19;5023701;28;20513;-56
2023/06/13 08:08:30;;;;;;;7.65;5.03;;;;;;;24.88;37.98;101349.75;5018215;28;20076;-56
2023/06/13 08:10:56;;;;;;;9.55;4.80;;;;;;;24.88;38.09;101359.81;5021625;28;20029;-55
2023/06/13 08:13:22;;;;;;;6.57;4.82;;;;;;;24.88;37.85;101351.63;5022751;28;20083;-56
2023/06/13 08:15:48;;;;;;;8.27;4.90;;;;;;;24.88;38.31;101357.94;5028912;28;20033;-56
2023/06/13 08:18:14;;;;;;;5.75;4.72;;;;;;;24.90;37.64;101358.63;5020766;28;20030;-56
2023/06/13 08:20:40;;;;;;;11.63;5.38;;;;;;;24.92;37.84;101355.69;5021458;28;20476;-56
2023/06/13 08:23:05;;;;;;;5.47;4.35;;;;;;;24.90;38.06;101355.03;5022036;28;20033;-56
2023/06/13 08:25:30;;;;;;;8.90;5.10;;;;;;;24.93;38.18;101358.25;5020785;28;20038;-56
2023/06/13 08:27:56;;;;;;;5.07;4.57;;;;;;;24.92;38.05;101359.28;5021627;28;20033;-55
2023/06/13 08:30:21;;;;;;;8.05;4.65;;;;;;;24.93;37.79;101357.41;5022680;28;20388;-56
2023/06/13 08:32:48;;;;;;;6.00;4.60;;;;;;;24.92;38.18;101353.84;5021439;28;20029;-56
2023/06/13 08:35:13;;;;;;;7.22;4.97;;;;;;;24.93;38.19;101351.97;5015441;28;20033;-56
2023/06/13 08:37:39;;;;;;;5.80;4.97;;;;;;;24.96;37.83;101351.59;5017468;28;20041;-56
2023/06/13 08:40:08;;;;;;;6.05;5.00;;;;;;;24.94;38.06;101349.06;5020197;28;20043;-56
2023/06/13 08:42:34;;;;;;;5.72;4.47;;;;;;;24.94;38.11;101343.59;5021249;28;20042;-56
2023/06/13 08:45:00;;;;;;;9.23;4.78;;;;;;;24.96;38.39;101338.81;5023849;28;20391;-56
2023/06/13 08:47:25;;;;;;;4.90;4.38;;;;;;;24.96;38.33;101341.53;5018666;28;20369;-56
2023/06/13 08:49:52;;;;;;;6.93;5.28;;;;;;;24.97;38.27;101337.78;5021065;28;20037;-56
2023/06/13 08:52:18;;;;;;;9.55;5.60;;;;;;;24.97;38.40;101337.78;5022319;28;20120;-56
2023/06/13 08:54:45;;;;;;;6.28;4.45;;;;;;;24.97;38.43;101345.13;5021031;28;20121;-56
2023/06/13 08:57:16;;;;;;;8.13;5.18;;;;;;;24.98;38.39;101342.22;5022366;28;20046;-56
2023/06/13 08:59:46;;;;;;;6.68;4.57;;;;;;;25.00;38.04;101333.00;5018520;28;20476;-56
2023/06/13 09:02:18;;;;;;;6.57;4.70;;;;;;;25.00;38.08;101330.28;5021054;28;20042;-56
2023/06/13 09:04:46;;;;;;;9.13;4.80;;;;;;;25.00;37.80;101327.53;5021184;28;20034;-56
2023/06/13 09:07:13;;;;;;;6.95;4.35;;;;;;;25.00;37.80;101324.81;5018915;28;20510;-56
2023/06/13 09:09:39;;;;;;;6.32;4.70;;;;;;;25.01;38.43;101331.97;5021103;28;20059;-56
2023/06/13 09:12:06;;;;;;;8.75;5.55;;;;;;;25.01;38.22;101334.72;5020264;28;20059;-56
2023/06/13 09:14:32;;;;;;;9.88;4.95;;;;;;;25.03;38.18;101335.38;5020520;28;20449;-56
2023/06/13 09:16:58;;;;;;;10.48;5.15;;;;;;;25.03;38.18;101319.03;5021694;28;20086;-56
2023/06/13 09:19:23;;;;;;;7.30;4.47;;;;;;;25.05;37.99;101327.84;5020789;28;20050;-56
2023/06/13 09:21:49;;;;;;;7.03;4.75;;;;;;;25.05;37.96;101330.59;5020408;28;20391;-56
2023/06/13 09:24:15;;;;;;;5.22;4.72;;;;;;;25.05;37.85;101327.84;5021213;28;20086;-56
2023/06/13 09:26:40;;;;;;;6.55;5.03;;;;;;;25.06;38.35;101330.41;5018349;28;20454;-56
2023/06/13 09:29:07;;;;;;;6.72;4.85;;;;;;;25.08;38.07;101330.22;5021378;28;20029;-56
2023/06/13 09:31:37;;;;;;;4.63;4.22;;;;;;;25.07;38.23;101331.25;5017269;28;20034;-56
2023/06/13 09:34:02;;;;;;;7.47;5.18;;;;;;;25.08;38.18;101316.59;5022469;28;20045;-56
2023/06/13 09:36:28;;;;;;;8.40;4.40;;;;;;;25.10;38.06;101320.00;5019397;28;20030;-56
2023/06/13 09:38:56;;;;;;;5.00;4.50;;;;;;;25.09;38.18;101318.28;5020778;28;20038;-56
2023/06/13 09:41:24;;;;;;;8.60;5.20;;;;;;;25.09;38.05;101324.59;5017896;28;20041;-57
2023/06/13 09:43:54;;;;;;;6.70;4.97;;;;;;;25.10;38.17;101325.44;5018669;28;20837;-56
2023/06/13 09:46:23;;;;;;;6.90;4.50;;;;;;;25.10;38.47;101323.56;5019005;28;20403;-55
2023/06/13 09:48:50;;;;;;;8.10;5.00;;;;;;;25.11;38.32;101319.81;5019844;28;20512;-55
2023/06/13 09:51:15;;;;;;;5.45;4.80;;;;;;;25.11;38.41;101324.41;5019042;28;20030;-55
2023/06/13 09:53:46;;;;;;;6.55;4.78;;;;;;;25.12;37.80;101326.09;5015313;28;20034;-55
2023/06/13 09:56:12;;;;;;;8.00;5.00;;;;;;;25.13;38.43;101320.47;5016589;28;20107;-56
2023/06/13 09:58:38;;;;;;;6.75;4.38;;;;;;;25.13;38.19;101311.44;5016323;28;20125;-56
2023/06/13 10:01:04;;;;;;;7.50;4.50;;;;;;;25.14;38.40;101321.31;5016304;28;20034;-55
2023/06/13 10:03:31;;;;;;;5.13;4.30;;;;;;;25.14;38.78;101315.88;5016063;28;20026;-56
2023/06/13 10:06:00;;;;;;;7.57;4.43;;;;;;;25.15;38.54;101307.53;5018642;28;20034;-56
2023/06/13 10:08:26;;;;;;;8.45;4.72;;;;;;;25.15;38.03;101312.97;5020874;28;20029;-56
2023/06/13 10:10:53;;;;;;;4.80;4.18;;;;;;;25.15;38.00;101318.41;5016420;28;20045;-56
2023/06/13 10:13:24;;;;;;;10.23;4.80;;;;;;;25.17;38.19;101321.81;5021201;28;20040;-55
2023/06/13 10:15:53;;;;;;;;;;;;;;;25.29;38.38;101314.06;5023132;28;20850;-55
2023/06/13 10:18:28;;;;;;;10.90;5.25;;;;;;;25.20;38.14;101312.41;5022617;28;19913;-56
2023/06/13 10:20:57;;;;;;;8.57;4.90;;;;;;;25.19;38.32;101313.47;5023709;28;20053;-56
2023/06/13 10:23:28;;;;;;;9.27;4.50;;;;;;;25.19;38.13;101308.00;5024633;28;20482;-56
2023/06/13 10:25:56;;;;;;;9.77;4.82;;;;;;;25.20;38.02;101315.13;5020035;28;20101;-56
2023/06/13 10:28:27;;;;;;;9.05;4.60;;;;;;;25.21;38.28;101307.78;5019912;28;20037;-56
2023/06/13 10:31:13;;;;;;;6.78;4.50;;;;;;;25.22;38.43;101306.78;5021740;28;20030;-56
2023/06/13 10:34:05;;;;;;;6.40;4.15;;;;;;;25.22;38.45;101306.78;5023366;28;20026;-56
2023/06/13 10:37:00;;;;;;;6.93;4.53;;;;;;;25.24;37.93;101305.59;5019737;28;20120;-56
2023/06/13 10:39:26;;;;;;;8.73;5.05;;;;;;;25.24;37.28;101305.59;5023299;28;20056;-56
2023/06/13 10:41:57;;;;;;;6.43;4.23;;;;;;;25.25;37.96;101301.84;5022724;28;20029;-56
2023/06/13 10:44:34;;;;;;;;;;;;;;;25.35;37.90;101307.03;5028181;28;20304;-56
2023/06/13 10:47:00;;;;;;;5.55;4.40;;;;;;;25.26;37.73;101303.53;5021960;28;20374;-56
2023/06/13 10:49:36;;;;;;;4.82;4.20;;;;;;;25.28;37.57;101309.63;5023632;28;20033;-56
2023/06/13 10:52:02;;;;;;;9.57;4.47;;;;;;;25.25;37.38;101307.28;5019612;28;20475;-55
2023/06/13 10:54:28;;;;;;;6.13;4.80;;;;;;;25.26;37.87;101308.13;5022995;28;20067;-56
2023/06/13 10:57:00;;;;;;;7.10;4.43;;;;;;;25.26;37.57;101308.97;5022364;28;20057;-56
2023/06/13 10:59:34;;;;;;;4.95;4.22;;;;;;;25.27;37.59;101304.41;5020215;28;20029;-56
2023/06/13 11:02:00;;;;;;;8.00;4.38;;;;;;;25.27;37.33;101297.06;5020551;28;20021;-56
2023/06/13 11:04:28;;;;;;;7.97;4.97;;;;;;;25.27;37.25;101291.59;5026305;28;20087;-56
2023/06/13 11:07:22;;;;;;;6.03;4.85;;;;;;;25.31;37.60;101290.19;5029877;28;20487;-56
2023/06/13 11:10:12;;;;;;;5.32;4.35;;;;;;;25.33;37.78;101299.03;5021656;28;20057;-56
2023/06/13 11:12:38;;;;;;;5.60;4.60;;;;;;;25.30;37.54;101288.53;5018812;28;20026;-56
2023/06/13 11:15:05;;;;;;;5.75;4.75;;;;;;;25.31;37.55;101289.34;5022485;28;20121;-56
2023/06/13 11:17:33;;;;;;;7.68;4.45;;;;;;;25.31;38.01;101276.56;5022293;28;20033;-56
2023/06/13 11:19:59;;;;;;;4.50;4.10;;;;;;;25.31;37.72;101283.91;5021801;28;20048;-56
2023/06/13 11:22:25;;;;;;;6.90;4.38;;;;;;;25.32;37.02;101291.91;5018034;28;20042;-56
2023/06/13 11:24:53;;;;;;;5.93;4.57;;;;;;;25.33;37.50;101288.13;5018125;28;20029;-56
2023/06/13 11:27:19;;;;;;;6.80;4.22;;;;;;;25.34;37.19;101289.84;5020256;28;20111;-56